sensor_id;sensor_type;location;lat;lon;timestamp;P1;durP1;ratioP1;P2;durP2;ratioP2
11642;SDS011;5877;50.930;6.918;2024-03-06T00:02:35;25.73;;;21.00;;
11642;SDS011;5877;50.930;6.918;2024-03-06T00:12:19;23.80;;;20.20;;
11642;SDS011;5877;50.930;6.918;2024-03-06T00:22:02;23.33;;;19.97;;
11642;SDS011;5877;50.930;6.918;2024-03-06T00:31:45;21.73;;;18.47;;
11642;SDS011;5877;50.930;6.918;2024-03-06T00:41:28;24.87;;;19.57;;
11642;SDS011;5877;50.930;6.918;2024-03-06T00:51:10;22.60;;;19.57;;
11642;SDS011;5877;50.930;6.918;2024-03-06T01:00:52;25.00;;;20.63;;
11642;SDS011;5877;50.930;6.918;2024-03-06T01:10:34;25.93;;;22.03;;
11642;SDS011;5877;50.930;6.918;2024-03-06T01:20:21;22.83;;;19.30;;
11642;SDS011;5877;50.930;6.918;2024-03-06T01:30:03;21.87;;;18.00;;
11642;SDS011;5877;50.930;6.918;2024-03-06T01:39:46;19.80;;;17.53;;
11642;SDS011;5877;50.930;6.918;2024-03-06T01:49:30;22.70;;;18.53;;
11642;SDS011;5877;50.930;6.918;2024-03-06T01:59:25;22.60;;;18.80;;
11642;SDS011;5877;50.930;6.918;2024-03-06T02:09:17;21.57;;;18.13;;
11642;SDS011;5877;50.930;6.918;2024-03-06T02:19:01;18.83;;;16.83;;
11642;SDS011;5877;50.930;6.918;2024-03-06T02:28:50;21.17;;;17.90;;
11642;SDS011;5877;50.930;6.918;2024-03-06T02:38:36;21.03;;;18.57;;
11642;SDS011;5877;50.930;6.918;2024-03-06T02:48:18;18.37;;;16.47;;
11642;SDS011;5877;50.930;6.918;2024-03-06T02:58:01;18.03;;;16.13;;
11642;SDS011;5877;50.930;6.918;2024-03-06T03:07:44;17.20;;;14.23;;
11642;SDS011;5877;50.930;6.918;2024-03-06T03:17:27;17.40;;;15.67;;
11642;SDS011;5877;50.930;6.918;2024-03-06T03:27:10;12.20;;;9.63;;
11642;SDS011;5877;50.930;6.918;2024-03-06T03:36:55;9.13;;;8.23;;
11642;SDS011;5877;50.930;6.918;2024-03-06T04:09:35;7.03;;;5.60;;
11642;SDS011;5877;50.930;6.918;2024-03-06T04:19:18;5.80;;;5.30;;
11642;SDS011;5877;50.930;6.918;2024-03-06T04:29:01;5.97;;;5.10;;
11642;SDS011;5877;50.930;6.918;2024-03-06T04:38:46;5.63;;;4.33;;
11642;SDS011;5877;50.930;6.918;2024-03-06T04:48:28;5.00;;;3.87;;
11642;SDS011;5877;50.930;6.918;2024-03-06T04:58:11;5.70;;;3.40;;
11642;SDS011;5877;50.930;6.918;2024-03-06T05:07:54;3.77;;;3.40;;
11642;SDS011;5877;50.930;6.918;2024-03-06T05:17:53;4.50;;;3.57;;
11642;SDS011;5877;50.930;6.918;2024-03-06T05:27:55;4.97;;;3.60;;
11642;SDS011;5877;50.930;6.918;2024-03-06T05:37:54;5.07;;;3.73;;
11642;SDS011;5877;50.930;6.918;2024-03-06T05:47:56;4.03;;;3.20;;
11642;SDS011;5877;50.930;6.918;2024-03-06T05:57:59;7.13;;;3.33;;
11642;SDS011;5877;50.930;6.918;2024-03-06T06:07:55;3.50;;;3.17;;
11642;SDS011;5877;50.930;6.918;2024-03-06T06:17:38;3.50;;;3.20;;
11642;SDS011;5877;50.930;6.918;2024-03-06T06:27:21;4.70;;;3.07;;
11642;SDS011;5877;50.930;6.918;2024-03-06T06:37:08;3.60;;;3.30;;
11642;SDS011;5877;50.930;6.918;2024-03-06T06:46:50;6.00;;;3.90;;
11642;SDS011;5877;50.930;6.918;2024-03-06T06:56:35;5.73;;;3.63;;
11642;SDS011;5877;50.930;6.918;2024-03-06T07:06:18;4.83;;;3.73;;
11642;SDS011;5877;50.930;6.918;2024-03-06T07:16:02;3.93;;;3.50;;
11642;SDS011;5877;50.930;6.918;2024-03-06T07:25:45;5.40;;;3.40;;
11642;SDS011;5877;50.930;6.918;2024-03-06T07:35:31;3.57;;;3.00;;
11642;SDS011;5877;50.930;6.918;2024-03-06T07:45:14;4.97;;;2.73;;
11642;SDS011;5877;50.930;6.918;2024-03-06T07:54:57;3.87;;;2.57;;
11642;SDS011;5877;50.930;6.918;2024-03-06T08:04:39;3.20;;;2.90;;
11642;SDS011;5877;50.930;6.918;2024-03-06T08:14:22;3.57;;;2.97;;
11642;SDS011;5877;50.930;6.918;2024-03-06T08:24:05;4.93;;;3.10;;
11642;SDS011;5877;50.930;6.918;2024-03-06T08:33:48;5.10;;;3.50;;
11642;SDS011;5877;50.930;6.918;2024-03-06T08:43:31;5.23;;;4.20;;
11642;SDS011;5877;50.930;6.918;2024-03-06T08:53:15;5.20;;;4.37;;
11642;SDS011;5877;50.930;6.918;2024-03-06T09:02:57;9.23;;;4.13;;
11642;SDS011;5877;50.930;6.918;2024-03-06T09:12:45;6.30;;;3.80;;
11642;SDS011;5877;50.930;6.918;2024-03-06T09:22:27;5.20;;;4.20;;
11642;SDS011;5877;50.930;6.918;2024-03-06T09:32:09;10.87;;;4.57;;
11642;SDS011;5877;50.930;6.918;2024-03-06T09:41:53;7.43;;;5.57;;
11642;SDS011;5877;50.930;6.918;2024-03-06T09:51:36;6.53;;;5.83;;
11642;SDS011;5877;50.930;6.918;2024-03-06T10:01:21;6.87;;;6.17;;
11642;SDS011;5877;50.930;6.918;2024-03-06T10:11:06;8.40;;;6.97;;
11642;SDS011;5877;50.930;6.918;2024-03-06T10:20:48;9.17;;;7.73;;
11642;SDS011;5877;50.930;6.918;2024-03-06T10:30:31;9.53;;;7.20;;
11642;SDS011;5877;50.930;6.918;2024-03-06T10:40:14;8.30;;;7.07;;
11642;SDS011;5877;50.930;6.918;2024-03-06T10:50:01;8.53;;;7.27;;
11642;SDS011;5877;50.930;6.918;2024-03-06T10:59:46;9.00;;;8.07;;
11642;SDS011;5877;50.930;6.918;2024-03-06T11:09:36;10.00;;;8.33;;
11642;SDS011;5877;50.930;6.918;2024-03-06T11:19:22;9.40;;;8.03;;
11642;SDS011;5877;50.930;6.918;2024-03-06T11:29:07;9.87;;;8.40;;
11642;SDS011;5877;50.930;6.918;2024-03-06T11:38:56;11.47;;;10.27;;
11642;SDS011;5877;50.930;6.918;2024-03-06T11:48:41;12.30;;;10.30;;
11642;SDS011;5877;50.930;6.918;2024-03-06T11:58:24;11.90;;;10.33;;
11642;SDS011;5877;50.930;6.918;2024-03-06T12:08:07;12.80;;;10.77;;
11642;SDS011;5877;50.930;6.918;2024-03-06T12:17:49;17.17;;;13.03;;
11642;SDS011;5877;50.930;6.918;2024-03-06T12:27:35;11.23;;;10.10;;
11642;SDS011;5877;50.930;6.918;2024-03-06T12:37:20;10.47;;;9.40;;
11642;SDS011;5877;50.930;6.918;2024-03-06T12:47:16;12.10;;;10.27;;
11642;SDS011;5877;50.930;6.918;2024-03-06T12:57:01;10.90;;;9.70;;
11642;SDS011;5877;50.930;6.918;2024-03-06T13:06:44;11.30;;;9.53;;
11642;SDS011;5877;50.930;6.918;2024-03-06T13:16:27;9.27;;;8.20;;
11642;SDS011;5877;50.930;6.918;2024-03-06T13:26:10;8.33;;;7.53;;
11642;SDS011;5877;50.930;6.918;2024-03-06T13:35:53;10.47;;;7.43;;
11642;SDS011;5877;50.930;6.918;2024-03-06T13:45:38;8.07;;;6.83;;
11642;SDS011;5877;50.930;6.918;2024-03-06T13:55:31;7.60;;;6.80;;
11642;SDS011;5877;50.930;6.918;2024-03-06T14:05:15;7.50;;;6.60;;
11642;SDS011;5877;50.930;6.918;2024-03-06T14:14:57;7.07;;;6.33;;
11642;SDS011;5877;50.930;6.918;2024-03-06T14:24:40;6.50;;;5.80;;
11642;SDS011;5877;50.930;6.918;2024-03-06T14:34:22;7.07;;;6.00;;
11642;SDS011;5877;50.930;6.918;2024-03-06T14:44:05;7.07;;;5.40;;
11642;SDS011;5877;50.930;6.918;2024-03-06T14:53:48;6.43;;;5.70;;
11642;SDS011;5877;50.930;6.918;2024-03-06T15:03:31;6.33;;;5.00;;
11642;SDS011;5877;50.930;6.918;2024-03-06T15:13:14;5.07;;;4.50;;
11642;SDS011;5877;50.930;6.918;2024-03-06T15:22:59;6.17;;;4.83;;
11642;SDS011;5877;50.930;6.918;2024-03-06T15:32:41;5.47;;;4.73;;
11642;SDS011;5877;50.930;6.918;2024-03-06T15:42:24;7.03;;;5.07;;
11642;SDS011;5877;50.930;6.918;2024-03-06T15:52:06;9.07;;;6.87;;
11642;SDS011;5877;50.930;6.918;2024-03-06T16:01:49;7.97;;;6.93;;
11642;SDS011;5877;50.930;6.918;2024-03-06T16:11:32;7.40;;;6.53;;
11642;SDS011;5877;50.930;6.918;2024-03-06T16:21:17;9.27;;;7.13;;
11642;SDS011;5877;50.930;6.918;2024-03-06T16:31:03;13.43;;;10.57;;
11642;SDS011;5877;50.930;6.918;2024-03-06T16:40:45;10.93;;;9.30;;
11642;SDS011;5877;50.930;6.918;2024-03-06T16:50:29;12.60;;;11.30;;
11642;SDS011;5877;50.930;6.918;2024-03-06T17:00:12;14.17;;;12.77;;
11642;SDS011;5877;50.930;6.918;2024-03-06T17:09:56;16.07;;;14.03;;
11642;SDS011;5877;50.930;6.918;2024-03-06T17:19:42;18.07;;;15.60;;
11642;SDS011;5877;50.930;6.918;2024-03-06T17:29:27;18.13;;;16.17;;
11642;SDS011;5877;50.930;6.918;2024-03-06T17:39:09;19.20;;;17.10;;
11642;SDS011;5877;50.930;6.918;2024-03-06T17:48:53;19.10;;;17.10;;
11642;SDS011;5877;50.930;6.918;2024-03-06T17:58:35;21.03;;;16.90;;
11642;SDS011;5877;50.930;6.918;2024-03-06T18:08:19;20.47;;;18.17;;
11642;SDS011;5877;50.930;6.918;2024-03-06T18:18:01;22.83;;;20.43;;
11642;SDS011;5877;50.930;6.918;2024-03-06T18:27:47;22.20;;;19.83;;
11642;SDS011;5877;50.930;6.918;2024-03-06T18:37:30;24.20;;;21.60;;
11642;SDS011;5877;50.930;6.918;2024-03-06T18:47:12;29.53;;;26.60;;
11642;SDS011;5877;50.930;6.918;2024-03-06T18:56:55;28.93;;;26.17;;
11642;SDS011;5877;50.930;6.918;2024-03-06T19:06:39;31.30;;;28.10;;
11642;SDS011;5877;50.930;6.918;2024-03-06T19:16:21;30.17;;;27.07;;
11642;SDS011;5877;50.930;6.918;2024-03-06T19:26:05;28.93;;;25.87;;
11642;SDS011;5877;50.930;6.918;2024-03-06T19:35:47;28.10;;;25.13;;
11642;SDS011;5877;50.930;6.918;2024-03-06T19:45:29;28.00;;;24.50;;
11642;SDS011;5877;50.930;6.918;2024-03-06T19:55:12;33.17;;;30.07;;
11642;SDS011;5877;50.930;6.918;2024-03-06T20:04:55;26.47;;;23.57;;
11642;SDS011;5877;50.930;6.918;2024-03-06T20:14:38;28.80;;;23.43;;
11642;SDS011;5877;50.930;6.918;2024-03-06T20:24:21;19.60;;;17.53;;
11642;SDS011;5877;50.930;6.918;2024-03-06T20:34:05;24.73;;;20.67;;
11642;SDS011;5877;50.930;6.918;2024-03-06T20:43:48;26.10;;;21.70;;
11642;SDS011;5877;50.930;6.918;2024-03-06T20:53:32;25.03;;;22.10;;
11642;SDS011;5877;50.930;6.918;2024-03-06T21:03:14;27.80;;;23.07;;
11642;SDS011;5877;50.930;6.918;2024-03-06T21:13:01;27.67;;;23.70;;
11642;SDS011;5877;50.930;6.918;2024-03-06T21:22:44;26.80;;;23.37;;
11642;SDS011;5877;50.930;6.918;2024-03-06T21:32:27;28.20;;;22.57;;
11642;SDS011;5877;50.930;6.918;2024-03-06T21:42:12;30.00;;;24.17;;
11642;SDS011;5877;50.930;6.918;2024-03-06T21:51:54;30.60;;;27.27;;
11642;SDS011;5877;50.930;6.918;2024-03-06T22:01:36;29.37;;;24.77;;
11642;SDS011;5877;50.930;6.918;2024-03-06T22:11:18;29.27;;;22.40;;
11642;SDS011;5877;50.930;6.918;2024-03-06T22:21:01;30.53;;;23.93;;
11642;SDS011;5877;50.930;6.918;2024-03-06T22:30:44;27.83;;;24.03;;
11642;SDS011;5877;50.930;6.918;2024-03-06T22:40:27;28.27;;;24.13;;
11642;SDS011;5877;50.930;6.918;2024-03-06T22:50:13;27.00;;;23.67;;
11642;SDS011;5877;50.930;6.918;2024-03-06T22:59:56;28.83;;;25.07;;
11642;SDS011;5877;50.930;6.918;2024-03-06T23:09:38;27.97;;;24.23;;
11642;SDS011;5877;50.930;6.918;2024-03-06T23:19:21;29.20;;;25.83;;
11642;SDS011;5877;50.930;6.918;2024-03-06T23:29:04;30.47;;;25.83;;
11642;SDS011;5877;50.930;6.918;2024-03-06T23:38:46;32.53;;;29.03;;
11642;SDS011;5877;50.930;6.918;2024-03-06T23:48:28;29.77;;;26.33;;
11642;SDS011;5877;50.930;6.918;2024-03-06T23:58:13;30.97;;;24.37;;
